createdAt,value
2023-02-16T00:00:26.911Z,70.04
2023-02-16T00:02:53.240Z,70.31
2023-02-16T00:05:19.537Z,70.54
2023-02-16T00:07:45.827Z,71.22
2023-02-16T00:10:12.142Z,72.02
2023-02-16T00:12:38.433Z,73.02
2023-02-16T00:15:04.726Z,71.77
2023-02-16T00:17:31.038Z,72.11
2023-02-16T00:19:57.329Z,72.94
2023-02-16T00:22:23.618Z,71.61
2023-02-16T00:24:49.917Z,70.64
2023-02-16T00:27:16.213Z,70.01
2023-02-16T00:29:45.947Z,69.49
2023-02-16T00:32:12.528Z,67.57
2023-02-16T00:34:38.891Z,66.98
2023-02-16T00:37:05.178Z,66.03
2023-02-16T00:39:31.491Z,65.51
2023-02-16T00:41:57.788Z,67.78
2023-02-16T00:44:24.079Z,67.70
2023-02-16T00:46:50.449Z,68.11
2023-02-16T00:49:16.741Z,69.51
2023-02-16T00:51:43.057Z,70.50
2023-02-16T00:54:09.370Z,70.21
2023-02-16T00:56:35.661Z,70.47
2023-02-16T00:59:01.972Z,70.53
2023-02-16T01:01:31.073Z,70.80
2023-02-16T01:03:57.411Z,70.57
2023-02-16T01:06:23.727Z,70.58
2023-02-16T01:08:50.049Z,69.24
2023-02-16T01:11:16.336Z,68.61
2023-02-16T01:13:42.636Z,67.92
2023-02-16T01:16:08.980Z,68.24
2023-02-16T01:18:35.284Z,68.03
2023-02-16T01:21:01.691Z,69.10
2023-02-16T01:23:28.109Z,68.95
2023-02-16T01:25:54.390Z,69.17
2023-02-16T01:28:20.673Z,68.66
2023-02-16T01:30:47.037Z,69.56
2023-02-16T01:33:13.376Z,70.01
2023-02-16T01:35:39.658Z,70.02
2023-02-16T01:38:06.005Z,69.73
2023-02-16T01:40:32.314Z,68.86
2023-02-16T01:42:58.601Z,71.33
2023-02-16T01:45:24.927Z,71.55
2023-02-16T01:47:51.215Z,71.16
2023-02-16T01:50:17.516Z,71.34
2023-02-16T01:52:43.861Z,70.99
2023-02-16T01:55:10.163Z,70.37
2023-02-16T01:57:36.450Z,70.71
2023-02-16T02:00:02.764Z,70.16
2023-02-16T02:02:29.111Z,71.37
2023-02-16T02:04:55.446Z,73.21
2023-02-16T02:07:21.779Z,72.69
2023-02-16T02:09:48.077Z,72.48
2023-02-16T02:12:14.412Z,73.37
2023-02-16T02:14:40.727Z,74.51
2023-02-16T02:17:07.027Z,73.69
2023-02-16T02:19:33.334Z,74.15
2023-02-16T02:21:59.642Z,76.64
2023-02-16T02:24:25.936Z,75.97
2023-02-16T02:26:52.221Z,74.21
2023-02-16T02:29:18.516Z,74.56
2023-02-16T02:31:44.961Z,74.72
2023-02-16T02:34:11.275Z,74.60
2023-02-16T02:36:37.579Z,73.62
2023-02-16T02:39:03.889Z,72.45
2023-02-16T02:41:30.172Z,72.26
2023-02-16T02:43:56.495Z,75.10
2023-02-16T02:46:22.792Z,72.61
2023-02-16T02:48:49.122Z,72.69
2023-02-16T02:51:15.448Z,72.71
2023-02-16T02:53:41.751Z,72.54
2023-02-16T02:56:08.049Z,72.18
2023-02-16T02:58:34.412Z,74.22
2023-02-16T03:01:00.744Z,73.60
2023-02-16T03:03:27.062Z,75.21
2023-02-16T03:05:53.371Z,75.24
2023-02-16T03:08:19.656Z,73.49
2023-02-16T03:10:45.941Z,74.42
2023-02-16T03:13:12.250Z,73.88
2023-02-16T03:15:38.547Z,74.02
2023-02-16T03:18:04.839Z,74.48
2023-02-16T03:20:31.160Z,74.48
2023-02-16T03:22:57.456Z,74.76
2023-02-16T03:25:23.738Z,74.97
2023-02-16T03:27:50.061Z,73.95
2023-02-16T03:30:16.537Z,73.84
2023-02-16T03:32:43.052Z,73.96
2023-02-16T03:35:09.395Z,74.24
2023-02-16T03:37:36.944Z,73.97
2023-02-16T03:40:03.246Z,73.59
2023-02-16T03:42:29.544Z,74.80
2023-02-16T03:44:55.847Z,75.27
2023-02-16T03:47:22.133Z,75.59
2023-02-16T03:49:48.445Z,75.64
2023-02-16T03:52:14.746Z,77.95
2023-02-16T03:54:41.031Z,76.60
2023-02-16T03:57:07.348Z,76.42
2023-02-16T03:59:33.629Z,76.37
2023-02-16T04:01:59.967Z,75.25
2023-02-16T04:04:26.517Z,76.25
2023-02-16T04:06:52.876Z,76.76
2023-02-16T04:09:19.172Z,75.79
2023-02-16T04:11:45.488Z,75.58
2023-02-16T04:14:11.787Z,77.49
2023-02-16T04:16:38.111Z,77.21
2023-02-16T04:19:04.430Z,75.90
2023-02-16T04:21:30.713Z,76.01
2023-02-16T04:23:57.000Z,76.73
2023-02-16T04:26:23.323Z,77.46
2023-02-16T04:28:49.615Z,77.32
2023-02-16T04:31:15.985Z,78.76
2023-02-16T04:33:42.341Z,77.96
2023-02-16T04:36:08.637Z,78.25
2023-02-16T04:38:34.929Z,78.25
2023-02-16T04:41:01.474Z,76.82
2023-02-16T04:43:27.868Z,80.20
2023-02-16T04:45:54.339Z,80.09
2023-02-16T04:48:20.722Z,79.98
2023-02-16T04:50:47.014Z,80.41
2023-02-16T04:53:13.303Z,78.96
2023-02-16T04:55:39.624Z,78.58
2023-02-16T04:58:05.923Z,79.13
2023-02-16T05:00:32.802Z,77.70
2023-02-16T05:02:59.952Z,79.50
2023-02-16T05:05:26.254Z,80.60
2023-02-16T05:07:52.550Z,80.19
2023-02-16T05:10:18.901Z,82.44
2023-02-16T05:12:45.212Z,81.25
2023-02-16T05:15:11.497Z,80.39
2023-02-16T05:17:37.827Z,79.65
2023-02-16T05:20:04.131Z,79.57
2023-02-16T05:22:30.431Z,78.67
2023-02-16T05:24:56.747Z,79.57
2023-02-16T05:27:23.041Z,79.94
2023-02-16T05:29:49.322Z,80.30
2023-02-16T05:32:15.700Z,80.23
2023-02-16T05:34:42.036Z,81.05
2023-02-16T05:37:08.340Z,80.20
2023-02-16T05:39:34.648Z,80.60
2023-02-16T05:42:00.932Z,80.69
2023-02-16T05:44:27.218Z,80.48
2023-02-16T05:46:53.531Z,80.85
2023-02-16T05:49:19.807Z,80.97
2023-02-16T05:51:46.136Z,83.37
2023-02-16T05:54:12.457Z,82.35
2023-02-16T05:56:38.749Z,83.76
2023-02-16T05:59:05.041Z,81.56
2023-02-16T06:01:31.369Z,81.93
2023-02-16T06:03:57.735Z,82.51
2023-02-16T06:06:24.114Z,81.28
2023-02-16T06:08:50.433Z,83.39
2023-02-16T06:11:16.721Z,82.04
2023-02-16T06:13:43.021Z,82.48
2023-02-16T06:16:09.402Z,81.50
2023-02-16T06:18:35.727Z,81.63
2023-02-16T06:21:02.266Z,80.78
2023-02-16T06:23:28.714Z,81.57
2023-02-16T06:25:55.006Z,81.78
2023-02-16T06:28:21.287Z,80.19
2023-02-16T06:30:47.591Z,80.10
2023-02-16T06:33:13.900Z,81.45
2023-02-16T06:35:40.210Z,81.99
2023-02-16T06:38:06.518Z,81.87
2023-02-16T06:40:32.805Z,83.50
2023-02-16T06:42:59.094Z,83.97
2023-02-16T06:45:25.410Z,84.63
2023-02-16T06:47:51.698Z,83.79
2023-02-16T06:50:17.996Z,83.16
2023-02-16T06:52:44.337Z,81.71
2023-02-16T06:55:10.628Z,80.30
2023-02-16T06:57:36.932Z,80.00
2023-02-16T07:00:03.403Z,81.35
2023-02-16T07:02:29.696Z,81.84
2023-02-16T07:04:56.033Z,82.30
2023-02-16T07:07:22.397Z,81.79
2023-02-16T07:09:48.679Z,82.26
2023-02-16T07:12:14.966Z,82.41
2023-02-16T07:14:43.121Z,81.79
2023-02-16T07:17:10.340Z,83.33
2023-02-16T07:19:36.641Z,85.19
2023-02-16T07:22:02.994Z,83.14
2023-02-16T07:24:29.278Z,81.67
2023-02-16T07:26:55.573Z,82.47
2023-02-16T07:29:21.876Z,82.96
2023-02-16T07:31:48.284Z,82.95
2023-02-16T07:34:14.837Z,84.08
2023-02-16T07:36:41.141Z,84.38
2023-02-16T07:39:07.430Z,83.26
2023-02-16T07:41:33.713Z,84.75
2023-02-16T07:44:00.016Z,86.74
2023-02-16T07:46:26.315Z,89.13
2023-02-16T07:48:52.605Z,88.39
2023-02-16T07:51:18.914Z,85.44
2023-02-16T07:53:45.209Z,86.26
2023-02-16T07:56:11.501Z,88.74
2023-02-16T07:58:37.822Z,88.33
2023-02-16T08:01:04.300Z,87.25
2023-02-16T08:03:30.809Z,87.31
2023-02-16T08:05:57.120Z,85.05
2023-02-16T08:08:23.396Z,86.25
2023-02-16T08:10:49.702Z,85.36
2023-02-16T08:13:16.028Z,83.92
2023-02-16T08:15:42.329Z,85.07
2023-02-16T08:18:08.615Z,84.65
2023-02-16T08:20:53.926Z,85.38
2023-02-16T08:23:21.182Z,87.32
2023-02-16T08:25:47.523Z,84.61
2023-02-16T08:28:13.820Z,83.64
2023-02-16T08:30:40.107Z,84.23
2023-02-16T08:33:06.412Z,84.48
2023-02-16T08:35:32.726Z,84.63
2023-02-16T08:37:59.012Z,83.35
2023-02-16T08:40:25.326Z,84.80
2023-02-16T08:42:51.622Z,87.62
2023-02-16T08:45:17.915Z,86.65
2023-02-16T08:47:44.208Z,88.48
2023-02-16T08:50:10.503Z,87.89
2023-02-16T08:52:36.793Z,88.92
2023-02-16T08:55:03.105Z,88.47
2023-02-16T08:57:29.406Z,87.17
2023-02-16T08:59:55.713Z,87.18
2023-02-16T09:02:22.063Z,86.46
2023-02-16T09:04:48.887Z,84.76
2023-02-16T09:07:15.264Z,84.88
2023-02-16T09:09:42.774Z,86.25
2023-02-16T09:12:09.125Z,86.56
2023-02-16T09:14:35.422Z,85.94
2023-02-16T09:17:01.762Z,84.00
2023-02-16T09:19:28.098Z,83.19
2023-02-16T09:21:54.416Z,85.07
2023-02-16T09:24:20.723Z,85.58
2023-02-16T09:26:47.055Z,86.08
2023-02-16T09:29:13.542Z,83.03
2023-02-16T09:31:40.046Z,83.96
2023-02-16T09:34:06.382Z,83.83
2023-02-16T09:36:32.709Z,83.81
2023-02-16T09:38:59.028Z,82.52
2023-02-16T09:41:25.311Z,82.60
2023-02-16T09:43:51.597Z,82.69
2023-02-16T09:46:18.661Z,84.57
2023-02-16T09:48:45.829Z,81.70
2023-02-16T09:51:12.132Z,81.33
2023-02-16T09:53:38.441Z,82.59
2023-02-16T09:56:05.146Z,81.30
2023-02-16T09:58:31.587Z,80.58
2023-02-16T10:00:57.902Z,82.18
2023-02-16T10:03:24.188Z,81.10
2023-02-16T10:05:50.671Z,82.79
2023-02-16T10:08:17.087Z,83.06
2023-02-16T10:10:43.374Z,80.48
2023-02-16T10:13:09.671Z,79.95
2023-02-16T10:15:36.045Z,79.03
2023-02-16T10:18:02.407Z,77.47
2023-02-16T10:20:28.686Z,80.33
2023-02-16T10:22:54.997Z,79.32
2023-02-16T10:25:21.273Z,79.92
2023-02-16T10:27:47.566Z,80.08
2023-02-16T10:30:13.917Z,78.03
2023-02-16T10:32:43.955Z,74.76
2023-02-16T10:35:10.543Z,76.84
2023-02-16T10:37:36.910Z,77.52
2023-02-16T10:40:03.214Z,74.94
2023-02-16T10:42:29.492Z,75.11
2023-02-16T10:44:55.787Z,72.19
2023-02-16T10:47:22.299Z,73.66
2023-02-16T10:49:48.697Z,69.54
2023-02-16T10:52:15.006Z,72.35
2023-02-16T10:54:41.302Z,71.38
2023-02-16T10:57:07.610Z,70.92
2023-02-16T10:59:33.955Z,69.59
2023-02-16T11:02:00.251Z,70.04
2023-02-16T11:04:26.592Z,72.29
2023-02-16T11:06:52.925Z,68.73
2023-02-16T11:09:19.213Z,68.79
2023-02-16T11:11:45.508Z,67.60
2023-02-16T11:14:11.830Z,64.12
2023-02-16T11:16:38.126Z,63.25
2023-02-16T11:19:04.420Z,63.25
2023-02-16T11:21:30.738Z,59.68
2023-02-16T11:23:57.022Z,60.05
2023-02-16T11:26:23.329Z,60.48
2023-02-16T11:28:49.635Z,61.99
2023-02-16T11:31:16.017Z,61.05
2023-02-16T11:33:42.395Z,60.46
2023-02-16T11:36:08.702Z,60.38
2023-02-16T11:38:35.074Z,62.46
2023-02-16T11:41:01.371Z,60.73
2023-02-16T11:43:27.744Z,59.50
2023-02-16T11:45:54.031Z,59.35
2023-02-16T11:48:20.312Z,60.79
2023-02-16T11:50:46.637Z,59.79
2023-02-16T11:53:12.946Z,60.89
2023-02-16T11:55:39.266Z,60.31
2023-02-16T11:58:05.666Z,58.43
2023-02-16T12:00:31.973Z,57.21
2023-02-16T12:02:58.267Z,58.07
2023-02-16T12:05:24.617Z,57.83
2023-02-16T12:07:50.965Z,56.03
2023-02-16T12:10:17.272Z,56.47
2023-02-16T12:12:43.581Z,55.65
2023-02-16T12:15:09.873Z,55.65
2023-02-16T12:17:36.168Z,55.51
2023-02-16T12:20:02.498Z,56.34
2023-02-16T12:22:28.805Z,56.55
2023-02-16T12:24:55.085Z,57.59
2023-02-16T12:27:21.401Z,56.33
2023-02-16T12:29:47.688Z,55.83
2023-02-16T12:32:14.010Z,56.70
2023-02-16T12:34:40.327Z,55.02
2023-02-16T12:37:06.628Z,55.23
2023-02-16T12:39:32.943Z,55.84
2023-02-16T12:41:59.272Z,54.60
2023-02-16T12:44:25.566Z,55.44
2023-02-16T12:46:51.868Z,54.50
2023-02-16T12:49:18.217Z,55.04
2023-02-16T12:51:44.516Z,54.05
2023-02-16T12:54:10.860Z,53.02
2023-02-16T12:56:37.195Z,56.20
2023-02-16T12:59:03.500Z,53.81
2023-02-16T13:01:29.866Z,55.79
2023-02-16T13:03:56.207Z,56.52
2023-02-16T13:06:22.525Z,53.48
2023-02-16T13:08:48.828Z,55.87
2023-02-16T13:11:15.165Z,57.16
2023-02-16T13:13:41.481Z,57.12
2023-02-16T13:16:14.920Z,56.28
2023-02-16T13:18:50.287Z,56.51
2023-02-16T13:21:16.581Z,56.06
2023-02-16T13:23:42.874Z,56.07
2023-02-16T13:26:09.618Z,56.44
2023-02-16T13:28:36.293Z,56.39
2023-02-16T13:31:02.705Z,56.03
2023-02-16T13:33:29.104Z,56.28
2023-02-16T13:35:55.401Z,58.51
2023-02-16T13:38:21.709Z,58.52
2023-02-16T13:40:48.031Z,58.38
2023-02-16T13:43:14.358Z,57.25
2023-02-16T13:45:40.733Z,58.54
2023-02-16T13:48:07.233Z,58.46
2023-02-16T13:50:33.540Z,57.98
2023-02-16T13:52:59.823Z,59.14
2023-02-16T13:55:26.195Z,58.13
2023-02-16T13:57:53.991Z,58.63
2023-02-16T14:00:20.887Z,57.31
2023-02-16T14:02:47.197Z,58.73
2023-02-16T14:05:13.495Z,58.36
2023-02-16T14:07:39.795Z,56.79
2023-02-16T14:10:06.135Z,58.29
2023-02-16T14:12:32.433Z,57.23
2023-02-16T14:14:58.731Z,57.84
2023-02-16T14:17:25.051Z,57.06
2023-02-16T14:19:51.351Z,55.64
2023-02-16T14:22:17.669Z,54.97
2023-02-16T14:24:43.992Z,55.85
2023-02-16T14:27:10.291Z,55.22
2023-02-16T14:29:36.573Z,54.91
2023-02-16T14:32:02.908Z,54.57
2023-02-16T14:34:29.223Z,54.04
2023-02-16T14:36:55.514Z,54.93
2023-02-16T14:39:22.821Z,54.50
2023-02-16T14:41:49.225Z,54.42
2023-02-16T14:44:15.533Z,55.69
2023-02-16T14:46:41.900Z,55.40
2023-02-16T14:49:08.198Z,55.65
2023-02-16T14:51:34.486Z,55.62
2023-02-16T14:54:00.797Z,54.46
2023-02-16T14:56:27.464Z,54.70
2023-02-16T14:58:53.758Z,55.52
2023-02-16T15:01:20.103Z,54.87
2023-02-16T15:03:46.444Z,55.56
2023-02-16T15:06:12.802Z,54.61
2023-02-16T15:08:39.130Z,54.26
2023-02-16T15:11:05.430Z,54.26
2023-02-16T15:13:31.731Z,54.94
2023-02-16T15:15:58.085Z,54.24
2023-02-16T15:18:24.400Z,52.10
2023-02-16T15:20:50.716Z,53.21
2023-02-16T15:23:17.034Z,51.90
2023-02-16T15:25:43.345Z,52.06
2023-02-16T15:28:09.687Z,53.49
2023-02-16T15:30:35.995Z,52.90
2023-02-16T15:33:02.499Z,52.06
2023-02-16T15:35:28.806Z,50.52
2023-02-16T15:37:55.125Z,51.20
2023-02-16T15:40:26.233Z,49.93
2023-02-16T15:42:52.878Z,50.11
2023-02-16T15:45:19.261Z,50.37
2023-02-16T15:47:46.279Z,50.00
2023-02-16T15:50:12.604Z,49.96
2023-02-16T15:52:38.920Z,50.34
2023-02-16T15:55:05.210Z,50.57
2023-02-16T15:57:31.516Z,50.28
2023-02-16T15:59:57.831Z,53.19
2023-02-16T16:02:24.128Z,51.54
2023-02-16T16:04:50.442Z,55.06
2023-02-16T16:07:16.788Z,54.96
2023-02-16T16:09:43.104Z,57.67
2023-02-16T16:12:09.398Z,57.44
2023-02-16T16:14:35.718Z,56.94
2023-02-16T16:17:02.024Z,56.54
2023-02-16T16:19:28.320Z,55.86
2023-02-16T16:21:54.659Z,54.82
2023-02-16T16:24:20.952Z,52.66
2023-02-16T16:26:47.255Z,53.20
2023-02-16T16:29:13.567Z,52.74
2023-02-16T16:31:39.958Z,51.66
2023-02-16T16:34:06.331Z,51.69
2023-02-16T16:36:32.651Z,50.78
2023-02-16T16:38:58.957Z,51.71
2023-02-16T16:41:25.259Z,51.79
2023-02-16T16:43:51.750Z,50.83
2023-02-16T16:46:18.079Z,51.10
2023-02-16T16:48:44.362Z,51.18
2023-02-16T16:51:10.681Z,51.60
2023-02-16T16:53:36.978Z,51.12
2023-02-16T16:56:03.749Z,52.49
2023-02-16T16:58:30.214Z,53.20
2023-02-16T17:00:56.517Z,53.84
2023-02-16T17:03:22.801Z,54.98
2023-02-16T17:05:49.220Z,55.12
2023-02-16T17:08:15.524Z,54.86
2023-02-16T17:10:41.836Z,55.81
2023-02-16T17:13:08.186Z,55.54
2023-02-16T17:15:34.467Z,54.26
2023-02-16T17:18:00.755Z,54.51
2023-02-16T17:20:27.070Z,55.01
2023-02-16T17:22:53.366Z,54.52
2023-02-16T17:25:19.764Z,54.19
2023-02-16T17:27:46.082Z,54.60
2023-02-16T17:30:12.440Z,54.09
2023-02-16T17:32:38.779Z,54.68
2023-02-16T17:35:05.119Z,54.91
2023-02-16T17:37:31.415Z,54.63
2023-02-16T17:39:57.718Z,55.70
2023-02-16T17:42:24.041Z,56.11
2023-02-16T17:44:50.463Z,56.66
2023-02-16T17:47:16.765Z,55.64
2023-02-16T17:49:43.078Z,54.97
2023-02-16T17:52:09.350Z,54.41
2023-02-16T17:54:35.635Z,54.30
2023-02-16T17:57:01.943Z,54.80
2023-02-16T17:59:29.957Z,54.51
2023-02-16T18:01:56.731Z,55.89
2023-02-16T18:04:23.106Z,54.17
2023-02-16T18:06:49.483Z,53.11
2023-02-16T18:09:15.783Z,52.97
2023-02-16T18:11:42.090Z,52.61
2023-02-16T18:14:08.376Z,51.67
2023-02-16T18:16:34.686Z,51.35
2023-02-16T18:19:01.048Z,50.40
2023-02-16T18:21:27.336Z,49.42
2023-02-16T18:23:53.630Z,48.48
2023-02-16T18:26:20.073Z,48.01
2023-02-16T18:28:46.392Z,46.90
2023-02-16T18:31:12.738Z,46.23
2023-02-16T18:33:39.084Z,46.49
2023-02-16T18:36:05.663Z,45.93
2023-02-16T18:38:32.304Z,46.07
2023-02-16T18:40:58.621Z,45.96
2023-02-16T18:43:24.935Z,46.32
2023-02-16T18:45:51.223Z,46.22
2023-02-16T18:48:17.596Z,46.40
2023-02-16T18:50:43.905Z,46.97
2023-02-16T18:53:10.210Z,46.37
2023-02-16T18:55:36.524Z,46.09
2023-02-16T18:58:02.819Z,46.80
2023-02-16T19:00:29.101Z,51.96
2023-02-16T19:02:55.414Z,56.12
2023-02-16T19:05:21.702Z,54.90
2023-02-16T19:07:47.998Z,52.89
2023-02-16T19:10:14.309Z,53.37
2023-02-16T19:12:40.608Z,51.98
2023-02-16T19:15:06.911Z,54.61
2023-02-16T19:17:33.236Z,53.00
2023-02-16T19:19:59.542Z,52.22
2023-02-16T19:22:25.832Z,51.75
2023-02-16T19:24:52.186Z,50.80
2023-02-16T19:27:18.487Z,50.91
2023-02-16T19:29:44.774Z,50.37
2023-02-16T19:32:11.105Z,49.66
2023-02-16T19:34:37.450Z,49.95
2023-02-16T19:37:03.744Z,50.19
2023-02-16T19:39:30.061Z,49.59
2023-02-16T19:41:56.344Z,49.21
2023-02-16T19:44:22.622Z,49.25
2023-02-16T19:46:48.936Z,50.63
2023-02-16T19:49:15.238Z,49.84
2023-02-16T19:51:41.533Z,49.61
2023-02-16T19:54:07.829Z,48.22
2023-02-16T19:56:34.106Z,49.28
2023-02-16T19:59:00.393Z,50.47
2023-02-16T20:01:26.728Z,50.89
2023-02-16T20:03:53.042Z,50.14
2023-02-16T20:06:19.334Z,49.81
2023-02-16T20:08:45.649Z,49.97
2023-02-16T20:11:11.955Z,49.52
2023-02-16T20:13:38.244Z,50.03
2023-02-16T20:16:04.942Z,50.19
2023-02-16T20:18:31.444Z,50.05
2023-02-16T20:20:57.735Z,49.95
2023-02-16T20:23:24.051Z,49.28
2023-02-16T20:25:50.343Z,49.72
2023-02-16T20:28:16.697Z,51.07
2023-02-16T20:30:43.050Z,52.04
2023-02-16T20:33:09.330Z,53.82
2023-02-16T20:35:35.616Z,53.73
2023-02-16T20:38:01.916Z,52.19
2023-02-16T20:40:28.202Z,52.76
2023-02-16T20:42:54.490Z,53.21
2023-02-16T20:45:20.807Z,52.94
2023-02-16T20:47:47.090Z,51.92
2023-02-16T20:50:13.380Z,51.54
2023-02-16T20:52:39.681Z,51.09
2023-02-16T20:55:05.981Z,50.19
2023-02-16T20:57:32.286Z,50.72
2023-02-16T20:59:58.604Z,49.72
2023-02-16T21:02:24.943Z,48.76
2023-02-16T21:04:51.272Z,49.60
2023-02-16T21:07:17.568Z,49.77
2023-02-16T21:09:43.867Z,50.15
2023-02-16T21:12:10.170Z,49.52
2023-02-16T21:14:36.472Z,48.83
2023-02-16T21:17:02.770Z,49.76
2023-02-16T21:19:29.062Z,48.86
2023-02-16T21:21:55.388Z,48.34
2023-02-16T21:24:21.694Z,48.67
2023-02-16T21:26:47.992Z,48.90
2023-02-16T21:29:14.320Z,48.96
2023-02-16T21:31:40.674Z,48.34
2023-02-16T21:34:06.989Z,47.27
2023-02-16T21:36:33.352Z,47.47
2023-02-16T21:38:59.641Z,47.75
2023-02-16T21:41:26.012Z,47.80
2023-02-16T21:43:52.366Z,48.67
2023-02-16T21:46:18.652Z,46.77
2023-02-16T21:48:44.942Z,46.90
2023-02-16T21:51:11.249Z,46.35
2023-02-16T21:53:37.539Z,46.07
2023-02-16T21:56:05.442Z,47.16
2023-02-16T21:58:31.931Z,47.03
2023-02-16T22:00:58.245Z,46.75
2023-02-16T22:03:24.718Z,46.61
2023-02-16T22:05:51.010Z,47.65
2023-02-16T22:08:17.331Z,48.11
2023-02-16T22:10:43.627Z,48.87
2023-02-16T22:13:09.930Z,48.86
2023-02-16T22:15:36.215Z,49.48
2023-02-16T22:18:02.502Z,49.49
2023-02-16T22:20:28.818Z,49.13
2023-02-16T22:22:55.108Z,49.64
2023-02-16T22:25:21.426Z,51.65
2023-02-16T22:27:47.743Z,51.15
2023-02-16T22:30:14.077Z,50.11
2023-02-16T22:32:40.385Z,49.02
2023-02-16T22:35:06.698Z,49.01
2023-02-16T22:37:32.990Z,51.41
2023-02-16T22:39:59.283Z,51.78
2023-02-16T22:42:25.638Z,52.04
2023-02-16T22:44:51.943Z,51.99
2023-02-16T22:47:18.238Z,52.15
2023-02-16T22:49:44.560Z,51.77
2023-02-16T22:52:10.861Z,53.24
2023-02-16T22:54:37.145Z,53.54
2023-02-16T22:57:03.472Z,52.94
2023-02-16T22:59:29.761Z,51.67
2023-02-16T23:01:56.037Z,50.42
2023-02-16T23:04:22.363Z,50.27
2023-02-16T23:06:48.655Z,47.70
2023-02-16T23:09:14.950Z,46.99
2023-02-16T23:11:41.260Z,46.48
2023-02-16T23:14:07.550Z,47.66
2023-02-16T23:16:33.859Z,46.30
2023-02-16T23:19:00.239Z,45.83
2023-02-16T23:21:26.570Z,45.79
2023-02-16T23:23:52.908Z,46.00
2023-02-16T23:26:19.245Z,45.90
2023-02-16T23:28:45.554Z,47.23
2023-02-16T23:31:11.957Z,47.17
2023-02-16T23:33:38.318Z,47.41
2023-02-16T23:36:04.846Z,47.31
2023-02-16T23:38:31.421Z,48.11
2023-02-16T23:40:57.738Z,48.18
2023-02-16T23:43:24.040Z,48.91
2023-02-16T23:45:50.344Z,48.49
2023-02-16T23:48:16.738Z,48.02
2023-02-16T23:50:43.030Z,47.66
2023-02-16T23:53:09.319Z,47.13
2023-02-16T23:55:35.636Z,48.42
2023-02-16T23:58:01.927Z,48.17
